Novosibirsk/Tolmachevo

Airport
ICAO code: 
UNNT
Summary
ICAO Region: 
EUR
Territory: 
Location: 
Ob, Siberia,
Coordinates: 
Aerial View: 
55° 0' 45.36" N, 82° 39' 2.532" E
Metar
Observation
UNNT 071730Z 27007MPS 9999 DRSN OVC013 M12/M15 Q1024 R25/490150 R16/810260 NOSIG RMK QFE758/1011
Station
TOLMACHEVO
Date/Time
2021-12-07 17:30:00
Wind direction
270°
Lowest cloud amount
overcast
Temperature
-12°C
Dew point
-15°C
Humidity
78%
QNH
1024 hPa
Weather condition
drifting snow

Description

Novosibirsk Tolmachevo Airport is situated in the town of Ob, 16 km from the center of Novosibirsk, an industrial and scientific center in Siberia, Russia.

Climatology

Humid Continental climate (Köppen climate classification Dfb) - Variable weather patterns and a large seasonal temperature variance. Summers are often warm and humid with frequent thunderstorms and winters can be very cold with frequent snowfall and persistent snow cover.

Runways

Designator Length Width Surface Rops
16/34 1097 14 paved Yes/Yes
7/25 3600 60 ASP Yes/Yes
Airport map: 
Aerial View: 

SKYbrary Partners:

Safety knowledge contributed by: